Online Now
Guests 2
Members   0

24/7 FSX Server
IP: 97.89.8.204
@ KDEN until 10/26/18



Information and tools for flight simulation use only - NOT for real avaition

File Flight Plans Here

KDEN 200953Z 20010KT 10SM CLR 05/M04 A3039 RMK AO2 SLP253 T00501044KDEN 200904Z 2009/2112 22010KT P6SM SKC FM201600 30006KT P6SM SKC FM201900 08008KT P6SM SKC FM202200 12010KT P6SM SKC FM210300 18010KT P6SM SKC
Aviation Digital Data Service (ADDS)



Other FSX servers